Terminal Aerodrome Forecast
Issued by NWS

Home | Current Version | Previous Version | Text Only | Print | Product List | Glossary On
Versions: 1 2 3 4 5 6 7 8 9 10 11 12 13 14 15 16 17
000
FTUS42 TJSJ 290500
TAFKPK
TAF
TKPK 290526Z 2906/3006 VRB04KT P6SM SCT021
      TEMPO 2906/2908 BKN015 BKN040
     FM291330 09014KT P6SM SCT022
     FM292100 08010KT P6SM SCT020
      AMD NOT SKED TIL 291100=

USA.gov is the U.S. government's official web portal to all federal, state and local government web resources and services.